Terminal Aerodrome Forecast
Issued by NWS Lake Charles, LA

Home | Current Version | Previous Version | Text Only | Print | Product List | Glossary On
Versions: 1 2 3 4 5 6 7 8 9 10 11 12 13 14 15 16 17 18 19 20
222
FTUS44 KLCH 261731
TAFBPT
TAF
KBPT 261731Z 2618/2718 14016G22KT P6SM SCT025 BKN035
     FM270000 14012KT P6SM OVC025
     FM270600 14011KT P6SM VCSH FEW009 OVC015 PROB30 2708/2713 5SM
      -RA BR OVC009
     FM271300 16009KT P6SM OVC009=

USA.gov is the U.S. government's official web portal to all federal, state and local government web resources and services.